Time,TemperatureF,DewpointF,PressureIn,WindDirection,WindDirectionDegrees,WindSpeedMPH,WindSpeedGustMPH,Humidity,HourlyPrecipIn,Conditions,Clouds,dailyrainin,SoftwareType,DateUTC
2013-03-10 00:02:00,57.9,47.4,29.81,West,270,4.9,7.3,68,0.00,,,0.00,VWS V14.01,2013-03-09 22:02:00,
2013-03-10 00:07:00,58.1,47.2,29.81,West,270,2.0,2.0,67,0.00,,,0.00,VWS V14.01,2013-03-09 22:07:00,
2013-03-10 00:12:00,58.1,46.8,29.81,WNW,292,3.1,3.3,66,0.00,,,0.00,VWS V14.01,2013-03-09 22:12:00,
2013-03-10 00:17:00,58.3,46.6,29.81,West,270,4.0,5.1,65,0.00,,,0.00,VWS V14.01,2013-03-09 22:17:00,
2013-03-10 00:22:00,58.3,46.2,29.80,West,270,4.2,4.2,64,0.00,,,0.00,VWS V14.01,2013-03-09 22:22:00,
2013-03-10 00:27:00,58.5,47.2,29.80,West,270,8.5,8.5,66,0.00,,,0.00,VWS V14.01,2013-03-09 22:27:00,
2013-03-10 00:32:00,58.3,47.8,29.80,West,270,5.5,5.5,68,0.00,,,0.00,VWS V14.01,2013-03-09 22:32:00,
2013-03-10 00:37:00,58.1,48.0,29.80,SW,225,9.6,12.3,69,0.00,,,0.00,VWS V14.01,2013-03-09 22:37:00,
2013-03-10 00:42:00,58.1,48.0,29.80,West,270,7.1,8.0,69,0.00,,,0.00,VWS V14.01,2013-03-09 22:42:00,
2013-03-10 00:47:00,57.9,48.2,29.79,WSW,248,10.5,10.5,70,0.00,,,0.00,VWS V14.01,2013-03-09 22:47:00,
2013-03-10 00:52:00,57.9,48.2,29.79,West,270,7.1,7.1,70,0.00,,,0.00,VWS V14.01,2013-03-09 22:52:00,
2013-03-10 00:57:00,57.7,48.0,29.79,WSW,248,5.5,6.9,70,0.00,,,0.00,VWS V14.01,2013-03-09 22:57:00,
2013-03-10 01:03:00,57.7,48.0,29.79,WNW,292,0.4,4.0,70,0.00,,,0.00,VWS V14.01,2013-03-09 23:03:00,
2013-03-10 01:08:00,57.6,47.9,29.79,WNW,292,3.5,6.7,70,0.00,,,0.00,VWS V14.01,2013-03-09 23:08:00,
2013-03-10 01:13:00,57.4,47.7,29.79,West,270,8.0,8.0,70,0.00,,,0.00,VWS V14.01,2013-03-09 23:13:00,
2013-03-10 01:18:00,57.4,47.7,29.79,NNW,338,3.8,3.8,70,0.00,,,0.00,VWS V14.01,2013-03-09 23:18:00,
2013-03-10 01:23:00,57.2,47.5,29.79,North,0,5.3,5.8,70,0.00,,,0.00,VWS V14.01,2013-03-09 23:23:00,
2013-03-10 01:28:00,57.0,47.3,29.79,North,0,6.7,9.1,70,0.00,,,0.00,VWS V14.01,2013-03-09 23:28:00,
2013-03-10 01:33:00,56.8,47.5,29.79,NW,315,6.7,10.5,71,0.00,,,0.00,VWS V14.01,2013-03-09 23:33:00,
2013-03-10 01:38:00,57.0,47.3,29.79,West,270,9.1,9.1,70,0.00,,,0.00,VWS V14.01,2013-03-09 23:38:00,
2013-03-10 01:43:00,57.0,47.3,29.79,West,270,4.6,4.6,70,0.00,,,0.00,VWS V14.01,2013-03-09 23:43:00,
2013-03-10 01:48:00,57.0,47.3,29.80,NW,315,5.1,5.1,70,0.00,,,0.00,VWS V14.01,2013-03-09 23:48:00,
2013-03-10 01:53:00,57.2,47.5,29.80,WNW,292,4.0,4.0,70,0.00,,,0.00,VWS V14.01,2013-03-09 23:53:00,
2013-03-10 01:58:00,57.0,47.3,29.80,WNW,292,0.2,0.2,70,0.00,,,0.00,VWS V14.01,2013-03-09 23:58:00,
2013-03-10 02:03:00,57.0,47.3,29.79,WNW,292,0.2,0.2,70,0.00,,,0.00,VWS V14.01,2013-03-10 00:03:00,
2013-03-10 02:08:00,57.0,47.3,29.79,WNW,292,0.2,0.2,70,0.00,,,0.00,VWS V14.01,2013-03-10 00:08:00,
2013-03-10 02:13:00,56.8,47.5,29.79,West,270,1.7,1.7,71,0.00,,,0.00,VWS V14.01,2013-03-10 00:13:00,
2013-03-10 02:18:00,56.7,47.4,29.79,West,270,0.8,0.8,71,0.00,,,0.00,VWS V14.01,2013-03-10 00:18:00,
2013-03-10 02:23:00,56.7,47.4,29.79,West,270,1.1,1.1,71,0.00,,,0.00,VWS V14.01,2013-03-10 00:23:00,
2013-03-10 02:28:00,56.5,47.2,29.79,NNW,338,0.0,0.0,71,0.00,,,0.00,VWS V14.01,2013-03-10 00:28:00,
2013-03-10 02:34:00,56.5,47.2,29.81,NW,315,2.9,2.9,71,0.00,,,0.00,VWS V14.01,2013-03-10 00:34:00,
2013-03-10 02:39:00,56.1,47.2,29.80,NNW,338,4.9,4.9,72,0.00,,,0.00,VWS V14.01,2013-03-10 00:39:00,
2013-03-10 02:44:00,56.1,47.2,29.80,NNW,338,4.9,4.9,72,0.00,,,0.00,VWS V14.01,2013-03-10 00:44:00,
2013-03-10 02:49:00,55.9,47.0,29.80,North,0,2.2,2.2,72,0.00,,,0.00,VWS V14.01,2013-03-10 00:49:00,
2013-03-10 02:54:00,55.6,46.7,29.80,North,0,3.8,6.7,72,0.00,,,0.00,VWS V14.01,2013-03-10 00:54:00,
2013-03-10 02:59:00,55.6,46.7,29.79,North,0,5.3,8.2,72,0.00,,,0.00,VWS V14.01,2013-03-10 00:59:00,
2013-03-10 03:04:00,55.4,46.5,29.79,North,0,0.2,0.2,72,0.00,,,0.00,VWS V14.01,2013-03-10 01:04:00,
2013-03-10 03:09:00,55.4,46.5,29.79,NNW,338,0.0,0.0,72,0.00,,,0.00,VWS V14.01,2013-03-10 01:09:00,
2013-03-10 03:14:00,55.4,45.8,29.79,WNW,292,4.2,4.2,70,0.00,,,0.00,VWS V14.01,2013-03-10 01:14:00,
2013-03-10 03:19:00,55.9,45.8,29.79,NNW,338,6.0,6.0,69,0.00,,,0.00,VWS V14.01,2013-03-10 01:19:00,
2013-03-10 03:24:00,56.3,45.8,29.79,NW,315,9.3,9.3,68,0.00,,,0.00,VWS V14.01,2013-03-10 01:24:00,
2013-03-10 03:29:00,56.1,45.7,29.79,NNW,338,3.1,7.8,68,0.00,,,0.00,VWS V14.01,2013-03-10 01:29:00,
2013-03-10 03:34:00,55.6,45.6,29.80,NNW,338,4.4,5.1,69,0.00,,,0.00,VWS V14.01,2013-03-10 01:34:00,
2013-03-10 03:39:00,55.6,46.0,29.80,WNW,292,0.0,0.0,70,0.00,,,0.00,VWS V14.01,2013-03-10 01:39:00,
2013-03-10 03:44:00,55.4,45.8,29.79,NW,315,4.6,4.6,70,0.00,,,0.00,VWS V14.01,2013-03-10 01:44:00,
2013-03-10 03:49:00,55.4,46.1,29.80,WSW,248,6.2,6.2,71,0.00,,,0.00,VWS V14.01,2013-03-10 01:49:00,
2013-03-10 03:54:00,55.6,46.3,29.80,WNW,292,1.3,3.5,71,0.00,,,0.00,VWS V14.01,2013-03-10 01:54:00,
2013-03-10 03:59:00,55.9,46.2,29.80,West,270,6.9,6.9,70,0.00,,,0.00,VWS V14.01,2013-03-10 01:59:00,
2013-03-10 04:04:00,55.9,46.2,29.80,WSW,248,4.2,4.2,70,0.00,,,0.00,VWS V14.01,2013-03-10 02:04:00,
2013-03-10 04:09:00,56.1,46.4,29.80,WNW,292,5.5,5.5,70,0.00,,,0.00,VWS V14.01,2013-03-10 02:09:00,
2013-03-10 04:15:00,56.1,46.4,29.80,West,270,5.1,5.1,70,0.00,,,0.00,VWS V14.01,2013-03-10 02:15:00,
2013-03-10 04:20:00,56.3,45.8,29.80,West,270,7.3,7.3,68,0.00,,,0.00,VWS V14.01,2013-03-10 02:20:00,
2013-03-10 04:25:00,56.5,45.7,29.80,West,270,5.1,5.1,67,0.00,,,0.00,VWS V14.01,2013-03-10 02:25:00,
2013-03-10 04:30:00,56.7,45.4,29.80,West,270,0.0,4.2,66,0.00,,,0.00,VWS V14.01,2013-03-10 02:30:00,
2013-03-10 04:35:00,56.7,45.4,29.80,West,270,0.2,4.4,66,0.00,,,0.00,VWS V14.01,2013-03-10 02:35:00,
2013-03-10 04:40:00,56.7,45.4,29.80,NW,315,3.1,3.1,66,0.00,,,0.00,VWS V14.01,2013-03-10 02:40:00,
2013-03-10 04:45:00,56.5,45.7,29.80,NNW,338,2.2,2.2,67,0.00,,,0.00,VWS V14.01,2013-03-10 02:45:00,
2013-03-10 04:50:00,56.3,46.2,29.80,NW,315,3.3,4.6,69,0.00,,,0.00,VWS V14.01,2013-03-10 02:50:00,
2013-03-10 04:55:00,56.1,46.0,29.80,NW,315,1.5,1.5,69,0.00,,,0.00,VWS V14.01,2013-03-10 02:55:00,
2013-03-10 05:00:00,55.9,45.8,29.79,WNW,292,3.1,3.1,69,0.00,,,0.00,VWS V14.01,2013-03-10 03:00:00,
2013-03-10 05:05:00,56.1,45.7,29.79,WNW,292,2.0,2.0,68,0.00,,,0.00,VWS V14.01,2013-03-10 03:05:00,
2013-03-10 05:10:00,56.7,45.0,29.78,NW,315,4.0,4.0,65,0.00,,,0.00,VWS V14.01,2013-03-10 03:10:00,
2013-03-10 05:15:00,57.0,45.7,29.79,WNW,292,1.5,1.5,66,0.00,,,0.00,VWS V14.01,2013-03-10 03:15:00,
2013-03-10 05:20:00,56.8,45.9,29.79,WNW,292,1.5,1.5,67,0.00,,,0.00,VWS V14.01,2013-03-10 03:20:00,
2013-03-10 05:25:00,56.8,45.9,29.80,West,270,3.8,3.8,67,0.00,,,0.00,VWS V14.01,2013-03-10 03:25:00,
2013-03-10 05:30:00,56.7,46.6,29.80,NW,315,6.7,11.4,69,0.00,,,0.00,VWS V14.01,2013-03-10 03:30:00,
2013-03-10 05:35:00,56.5,46.8,29.79,WNW,292,4.9,8.2,70,0.00,,,0.00,VWS V14.01,2013-03-10 03:35:00,
2013-03-10 05:41:00,56.3,46.6,29.79,WNW,292,8.5,9.6,70,0.00,,,0.00,VWS V14.01,2013-03-10 03:41:00,
2013-03-10 05:46:00,56.3,47.0,29.80,WNW,292,7.3,7.3,71,0.00,,,0.00,VWS V14.01,2013-03-10 03:46:00,
2013-03-10 05:51:00,56.3,47.0,29.79,NW,315,6.0,10.0,71,0.00,,,0.00,VWS V14.01,2013-03-10 03:51:00,
2013-03-10 05:56:00,56.1,46.8,29.80,WNW,292,5.5,7.1,71,0.00,,,0.00,VWS V14.01,2013-03-10 03:56:00,
2013-03-10 06:01:00,55.9,47.0,29.80,WNW,292,4.9,7.6,72,0.00,,,0.00,VWS V14.01,2013-03-10 04:01:00,
2013-03-10 06:06:00,55.6,46.7,29.80,WNW,292,6.0,6.4,72,0.00,,,0.00,VWS V14.01,2013-03-10 04:06:00,
2013-03-10 06:11:00,55.4,46.9,29.79,NNW,338,3.3,3.3,73,0.00,,,0.00,VWS V14.01,2013-03-10 04:11:00,
2013-03-10 06:16:00,55.0,46.8,29.79,NW,315,7.3,7.3,74,0.00,,,0.00,VWS V14.01,2013-03-10 04:16:00,
2013-03-10 06:21:00,55.4,47.2,29.79,NW,315,5.5,5.8,74,0.00,,,0.00,VWS V14.01,2013-03-10 04:21:00,
2013-03-10 06:26:00,55.4,46.9,29.79,NNW,338,2.2,2.2,73,0.00,,,0.00,VWS V14.01,2013-03-10 04:26:00,
2013-03-10 06:31:00,55.4,46.5,29.79,NNW,338,2.9,2.9,72,0.00,,,0.00,VWS V14.01,2013-03-10 04:31:00,
2013-03-10 06:36:00,55.4,46.1,29.80,NW,315,4.6,4.6,71,0.00,,,0.00,VWS V14.01,2013-03-10 04:36:00,
2013-03-10 06:41:00,55.6,46.3,29.80,NNW,338,3.3,3.3,71,0.00,,,0.00,VWS V14.01,2013-03-10 04:41:00,
2013-03-10 06:46:00,55.6,46.7,29.80,NNW,338,5.1,5.1,72,0.00,,,0.00,VWS V14.01,2013-03-10 04:46:00,
2013-03-10 06:51:00,55.4,47.2,29.80,NNW,338,3.1,3.1,74,0.00,,,0.00,VWS V14.01,2013-03-10 04:51:00,
2013-03-10 06:57:00,55.0,47.2,29.80,NNW,338,4.9,4.9,75,0.00,,,0.00,VWS V14.01,2013-03-10 04:57:00,
2013-03-10 07:00:00,54.9,47.5,29.80,NNW,338,2.2,5.3,76,0.00,,,0.00,VWS V14.01,2013-03-10 05:00:00,
2013-03-10 07:01:00,54.9,47.5,29.80,NNW,338,2.2,2.2,76,0.00,,,0.00,VWS V14.01,2013-03-10 05:01:00,
2013-03-10 07:02:00,54.9,47.5,29.81,NNW,338,2.9,2.9,76,0.00,,,0.00,VWS V14.01,2013-03-10 05:02:00,
2013-03-10 07:05:00,54.7,47.6,29.81,NNW,338,4.0,6.0,77,0.00,,,0.00,VWS V14.01,2013-03-10 05:05:00,
2013-03-10 07:10:00,54.7,47.6,29.80,NNW,338,3.8,3.8,77,0.00,,,0.00,VWS V14.01,2013-03-10 05:10:00,
2013-03-10 07:15:00,54.5,47.4,29.81,NNW,338,0.0,0.0,77,0.00,,,0.00,VWS V14.01,2013-03-10 05:15:00,
2013-03-10 07:20:00,54.5,47.4,29.81,NNW,338,0.0,0.0,77,0.00,,,0.00,VWS V14.01,2013-03-10 05:20:00,
2013-03-10 07:25:00,54.5,47.1,29.81,NNW,338,0.0,5.5,76,0.00,,,0.00,VWS V14.01,2013-03-10 05:25:00,
2013-03-10 07:30:00,54.5,47.4,29.81,NNW,338,0.0,0.0,77,0.00,,,0.00,VWS V14.01,2013-03-10 05:30:00,
2013-03-10 07:35:00,54.7,47.6,29.81,NNW,338,0.0,0.0,77,0.00,,,0.00,VWS V14.01,2013-03-10 05:35:00,
2013-03-10 07:40:00,54.5,47.4,29.82,NW,315,0.0,0.0,77,0.00,,,0.00,VWS V14.01,2013-03-10 05:40:00,
2013-03-10 07:45:00,54.7,47.6,29.81,NW,315,0.0,0.0,77,0.00,,,0.00,VWS V14.01,2013-03-10 05:45:00,
2013-03-10 07:50:00,54.9,47.8,29.81,NW,315,0.0,0.0,77,0.00,,,0.00,VWS V14.01,2013-03-10 05:50:00,
2013-03-10 07:55:00,55.0,47.5,29.81,NNW,338,0.0,0.0,76,0.00,,,0.00,VWS V14.01,2013-03-10 05:55:00,
2013-03-10 08:00:00,55.4,47.6,29.82,WNW,292,0.0,0.0,75,0.00,,,0.00,VWS V14.01,2013-03-10 06:00:00,
2013-03-10 08:05:00,56.5,46.8,29.82,WNW,292,0.0,1.5,70,0.00,,,0.00,VWS V14.01,2013-03-10 06:05:00,
2013-03-10 08:10:00,57.2,46.3,29.82,WNW,292,1.1,1.1,67,0.00,,,0.00,VWS V14.01,2013-03-10 06:10:00,
2013-03-10 08:15:00,57.4,46.1,29.82,West,270,4.4,4.4,66,0.00,,,0.00,VWS V14.01,2013-03-10 06:15:00,
2013-03-10 08:20:00,58.3,46.6,29.82,WNW,292,2.9,4.9,65,0.00,,,0.00,VWS V14.01,2013-03-10 06:20:00,
2013-03-10 08:25:00,58.5,46.3,29.82,West,270,8.7,8.7,64,0.00,,,0.00,VWS V14.01,2013-03-10 06:25:00,
2013-03-10 08:31:00,58.5,46.3,29.82,WNW,292,2.4,2.4,64,0.00,,,0.00,VWS V14.01,2013-03-10 06:31:00,
2013-03-10 08:36:00,58.6,46.4,29.82,West,270,0.2,5.3,64,0.00,,,0.00,VWS V14.01,2013-03-10 06:36:00,
2013-03-10 08:41:00,58.6,46.4,29.82,West,270,3.3,3.3,64,0.00,,,0.00,VWS V14.01,2013-03-10 06:41:00,
2013-03-10 08:46:00,58.6,46.8,29.82,West,270,0.0,1.5,65,0.00,,,0.00,VWS V14.01,2013-03-10 06:46:00,
2013-03-10 08:51:00,59.0,46.8,29.82,West,270,3.1,3.1,64,0.00,,,0.00,VWS V14.01,2013-03-10 06:51:00,
2013-03-10 08:56:00,59.2,47.4,29.82,WNW,292,0.6,0.6,65,0.00,,,0.00,VWS V14.01,2013-03-10 06:56:00,
2013-03-10 09:01:00,59.2,47.0,29.83,West,270,5.1,8.2,64,0.00,,,0.00,VWS V14.01,2013-03-10 07:01:00,
2013-03-10 09:06:00,59.4,47.6,29.83,WNW,292,0.0,0.0,65,0.00,,,0.00,VWS V14.01,2013-03-10 07:06:00,
2013-03-10 09:11:00,59.9,47.7,29.83,WNW,292,0.0,0.8,64,0.00,,,0.00,VWS V14.01,2013-03-10 07:11:00,
2013-03-10 09:16:00,60.1,47.9,29.83,WNW,292,0.0,0.0,64,0.00,,,0.00,VWS V14.01,2013-03-10 07:16:00,
2013-03-10 09:21:00,60.4,47.7,29.83,SSW,202,6.2,6.2,63,0.00,,,0.00,VWS V14.01,2013-03-10 07:21:00,
2013-03-10 09:26:00,60.6,47.1,29.83,WSW,248,0.8,0.8,61,0.00,,,0.00,VWS V14.01,2013-03-10 07:26:00,
2013-03-10 09:31:00,60.8,46.8,29.83,West,270,0.0,0.0,60,0.00,,,0.00,VWS V14.01,2013-03-10 07:31:00,
2013-03-10 09:36:00,61.0,47.0,29.83,WSW,248,0.0,0.0,60,0.00,,,0.00,VWS V14.01,2013-03-10 07:36:00,
2013-03-10 09:41:00,61.3,47.3,29.84,West,270,0.0,0.0,60,0.00,,,0.00,VWS V14.01,2013-03-10 07:41:00,
2013-03-10 09:46:00,61.7,46.3,29.84,West,270,1.5,1.5,57,0.00,,,0.00,VWS V14.01,2013-03-10 07:46:00,
2013-03-10 09:51:00,62.1,45.7,29.83,SW,225,1.5,1.5,55,0.00,,,0.00,VWS V14.01,2013-03-10 07:51:00,
2013-03-10 09:56:00,62.6,46.2,29.84,West,270,3.1,3.1,55,0.00,,,0.00,VWS V14.01,2013-03-10 07:56:00,
2013-03-10 10:01:00,62.1,46.2,29.84,West,270,0.0,0.0,56,0.00,,,0.00,VWS V14.01,2013-03-10 08:01:00,
2013-03-10 10:06:00,62.1,46.2,29.84,West,270,4.6,5.8,56,0.00,,,0.00,VWS V14.01,2013-03-10 08:06:00,
2013-03-10 10:12:00,62.1,46.2,29.84,West,270,2.2,2.2,56,0.00,,,0.00,VWS V14.01,2013-03-10 08:12:00,
2013-03-10 10:17:00,61.9,46.0,29.84,West,270,3.1,3.1,56,0.00,,,0.00,VWS V14.01,2013-03-10 08:17:00,
2013-03-10 10:22:00,61.9,45.5,29.84,West,270,2.9,2.9,55,0.00,,,0.00,VWS V14.01,2013-03-10 08:22:00,
2013-03-10 10:27:00,62.2,45.3,29.83,WNW,292,7.3,7.3,54,0.00,,,0.00,VWS V14.01,2013-03-10 08:27:00,
2013-03-10 10:32:00,62.6,45.2,29.83,NNW,338,1.7,7.3,53,0.00,,,0.00,VWS V14.01,2013-03-10 08:32:00,
2013-03-10 10:37:00,62.8,45.4,29.84,West,270,6.7,6.7,53,0.00,,,0.00,VWS V14.01,2013-03-10 08:37:00,
2013-03-10 10:42:00,62.6,45.2,29.83,WSW,248,0.4,0.4,53,0.00,,,0.00,VWS V14.01,2013-03-10 08:42:00,
2013-03-10 10:47:00,62.8,44.9,29.83,WSW,248,1.7,4.6,52,0.00,,,0.00,VWS V14.01,2013-03-10 08:47:00,
2013-03-10 10:52:00,63.5,46.5,29.83,West,270,0.0,0.0,54,0.00,,,0.00,VWS V14.01,2013-03-10 08:52:00,
2013-03-10 10:57:00,63.7,45.7,29.83,WNW,292,0.0,0.0,52,0.00,,,0.00,VWS V14.01,2013-03-10 08:57:00,
2013-03-10 11:02:00,63.9,45.9,29.83,West,270,3.1,3.1,52,0.00,,,0.00,VWS V14.01,2013-03-10 09:02:00,
2013-03-10 11:07:00,64.4,47.9,29.83,WSW,248,0.0,0.0,55,0.00,,,0.00,VWS V14.01,2013-03-10 09:07:00,
2013-03-10 11:12:00,64.9,49.3,29.83,WSW,248,0.0,0.0,57,0.00,,,0.00,VWS V14.01,2013-03-10 09:12:00,
2013-03-10 11:17:00,64.4,48.8,29.83,ESE,112,6.4,6.4,57,0.00,,,0.00,VWS V14.01,2013-03-10 09:17:00,
2013-03-10 11:22:00,64.4,47.4,29.82,ESE,112,4.6,4.6,54,0.00,,,0.00,VWS V14.01,2013-03-10 09:22:00,
2013-03-10 11:27:00,64.6,48.0,29.82,ESE,112,0.0,0.0,55,0.00,,,0.00,VWS V14.01,2013-03-10 09:27:00,
2013-03-10 11:33:00,64.8,47.8,29.83,ESE,112,0.0,0.0,54,0.00,,,0.00,VWS V14.01,2013-03-10 09:33:00,
2013-03-10 11:38:00,65.8,49.7,29.83,SE,135,0.0,1.1,56,0.00,,,0.00,VWS V14.01,2013-03-10 09:38:00,
2013-03-10 11:43:00,66.4,49.2,29.83,ESE,112,0.0,0.0,54,0.00,,,0.00,VWS V14.01,2013-03-10 09:43:00,
2013-03-10 11:48:00,66.2,49.0,29.82,SSE,158,0.6,4.4,54,0.00,,,0.00,VWS V14.01,2013-03-10 09:48:00,
2013-03-10 11:53:00,66.7,49.5,29.82,SSE,158,0.0,0.0,54,0.00,,,0.00,VWS V14.01,2013-03-10 09:53:00,
2013-03-10 11:58:00,67.1,48.9,29.82,SSE,158,0.0,0.0,52,0.00,,,0.00,VWS V14.01,2013-03-10 09:58:00,
2013-03-10 12:03:00,67.5,49.2,29.82,ESE,112,0.0,0.0,52,0.00,,,0.00,VWS V14.01,2013-03-10 10:03:00,
2013-03-10 12:08:00,68.2,49.9,29.82,ESE,112,0.0,0.0,52,0.00,,,0.00,VWS V14.01,2013-03-10 10:08:00,
2013-03-10 12:13:00,68.5,47.5,29.82,NE,45,3.1,4.6,47,0.00,,,0.00,VWS V14.01,2013-03-10 10:13:00,
2013-03-10 12:18:00,68.0,48.1,29.82,West,270,0.0,0.0,49,0.00,,,0.00,VWS V14.01,2013-03-10 10:18:00,
2013-03-10 12:23:00,68.9,48.9,29.81,WSW,248,0.0,0.0,49,0.00,,,0.00,VWS V14.01,2013-03-10 10:23:00,
2013-03-10 12:28:00,69.4,47.1,29.81,WSW,248,0.0,0.0,45,0.00,,,0.00,VWS V14.01,2013-03-10 10:28:00,
2013-03-10 12:33:00,69.4,48.3,29.81,SSE,158,0.0,0.0,47,0.00,,,0.00,VWS V14.01,2013-03-10 10:33:00,
2013-03-10 12:38:00,68.9,47.2,29.81,SSE,158,0.0,0.0,46,0.00,,,0.00,VWS V14.01,2013-03-10 10:38:00,
2013-03-10 12:43:00,69.1,46.8,29.81,SSE,158,0.8,0.8,45,0.00,,,0.00,VWS V14.01,2013-03-10 10:43:00,
2013-03-10 12:48:00,69.1,46.8,29.81,SSE,158,0.0,0.0,45,0.00,,,0.00,VWS V14.01,2013-03-10 10:48:00,
2013-03-10 12:53:00,69.4,46.5,29.81,SSE,158,0.0,0.0,44,0.00,,,0.00,VWS V14.01,2013-03-10 10:53:00,
2013-03-10 12:58:00,69.8,46.9,29.80,East,90,0.0,0.0,44,0.00,,,0.00,VWS V14.01,2013-03-10 10:58:00,
2013-03-10 13:03:00,70.0,47.7,29.80,East,90,0.0,0.0,45,0.00,,,0.00,VWS V14.01,2013-03-10 11:03:00,
2013-03-10 13:09:00,70.5,47.5,29.80,East,90,0.0,0.0,44,0.00,,,0.00,VWS V14.01,2013-03-10 11:09:00,
2013-03-10 13:14:00,70.9,47.9,29.80,East,90,0.0,0.0,44,0.00,,,0.00,VWS V14.01,2013-03-10 11:14:00,
2013-03-10 13:19:00,70.3,47.3,29.80,ESE,112,0.0,0.0,44,0.00,,,0.00,VWS V14.01,2013-03-10 11:19:00,
2013-03-10 13:24:00,70.7,48.3,29.80,ESE,112,0.0,0.0,45,0.00,,,0.00,VWS V14.01,2013-03-10 11:24:00,
2013-03-10 13:29:00,71.4,47.7,29.80,SE,135,4.2,4.2,43,0.00,,,0.00,VWS V14.01,2013-03-10 11:29:00,
2013-03-10 13:34:00,71.1,47.5,29.79,ESE,112,0.0,2.0,43,0.00,,,0.00,VWS V14.01,2013-03-10 11:34:00,
2013-03-10 13:39:00,70.7,47.1,29.79,East,90,0.0,0.0,43,0.00,,,0.00,VWS V14.01,2013-03-10 11:39:00,
2013-03-10 13:44:00,70.3,47.3,29.79,NE,45,2.4,6.0,44,0.00,,,0.00,VWS V14.01,2013-03-10 11:44:00,
2013-03-10 13:49:00,70.5,47.5,29.79,NNE,22,0.0,0.0,44,0.00,,,0.00,VWS V14.01,2013-03-10 11:49:00,
2013-03-10 13:54:00,70.3,46.1,29.78,NNW,338,0.0,0.0,42,0.00,,,0.00,VWS V14.01,2013-03-10 11:54:00,
2013-03-10 13:59:00,70.0,45.2,29.78,NW,315,2.4,5.3,41,0.00,,,0.00,VWS V14.01,2013-03-10 11:59:00,
2013-03-10 14:04:00,70.3,46.7,29.78,North,0,2.6,7.3,43,0.00,,,0.00,VWS V14.01,2013-03-10 12:04:00,
2013-03-10 14:09:00,70.0,45.8,29.78,NNW,338,6.4,8.0,42,0.00,,,0.00,VWS V14.01,2013-03-10 12:09:00,
2013-03-10 14:14:00,69.8,46.3,29.78,NNW,338,0.8,0.8,43,0.00,,,0.00,VWS V14.01,2013-03-10 12:14:00,
2013-03-10 14:19:00,69.1,46.3,29.78,NNW,338,4.9,4.9,44,0.00,,,0.00,VWS V14.01,2013-03-10 12:19:00,
2013-03-10 14:24:00,68.0,45.8,29.78,WNW,292,0.0,0.0,45,0.00,,,0.00,VWS V14.01,2013-03-10 12:24:00,
2013-03-10 14:29:00,68.0,46.4,29.78,NW,315,4.0,4.0,46,0.00,,,0.00,VWS V14.01,2013-03-10 12:29:00,
2013-03-10 14:34:00,67.6,46.1,29.78,West,270,0.0,0.0,46,0.00,,,0.00,VWS V14.01,2013-03-10 12:34:00,
2013-03-10 14:40:00,67.5,46.0,29.78,West,270,0.0,3.1,46,0.00,,,0.00,VWS V14.01,2013-03-10 12:40:00,
2013-03-10 14:45:00,67.5,46.5,29.78,NW,315,3.8,3.8,47,0.00,,,0.00,VWS V14.01,2013-03-10 12:45:00,
2013-03-10 14:50:00,67.5,46.5,29.78,NNW,338,0.0,0.0,47,0.00,,,0.00,VWS V14.01,2013-03-10 12:50:00,
2013-03-10 14:55:00,67.6,47.2,29.78,NW,315,0.0,0.0,48,0.00,,,0.00,VWS V14.01,2013-03-10 12:55:00,
2013-03-10 15:00:00,68.2,47.8,29.78,WSW,248,0.0,0.0,48,0.00,,,0.00,VWS V14.01,2013-03-10 13:00:00,
2013-03-10 15:05:00,67.8,47.4,29.77,SSE,158,0.0,0.0,48,0.00,,,0.00,VWS V14.01,2013-03-10 13:05:00,
2013-03-10 15:10:00,67.5,47.7,29.77,SSE,158,0.0,0.0,49,0.00,,,0.00,VWS V14.01,2013-03-10 13:10:00,
2013-03-10 15:15:00,67.3,48.5,29.78,SSE,158,0.0,0.0,51,0.00,,,0.00,VWS V14.01,2013-03-10 13:15:00,
2013-03-10 15:20:00,68.0,48.1,29.78,SW,225,4.0,4.0,49,0.00,,,0.00,VWS V14.01,2013-03-10 13:20:00,
2013-03-10 15:25:00,68.2,47.8,29.77,South,180,0.0,0.0,48,0.00,,,0.00,VWS V14.01,2013-03-10 13:25:00,
2013-03-10 15:30:00,68.7,47.6,29.77,SSW,202,1.7,4.9,47,0.00,,,0.00,VWS V14.01,2013-03-10 13:30:00,
2013-03-10 15:35:00,68.0,47.0,29.77,SSW,202,4.2,4.4,47,0.00,,,0.00,VWS V14.01,2013-03-10 13:35:00,
2013-03-10 15:40:00,67.8,46.8,29.77,SSW,202,5.8,5.8,47,0.00,,,0.00,VWS V14.01,2013-03-10 13:40:00,
2013-03-10 15:45:00,68.0,47.0,29.77,SW,225,6.2,8.9,47,0.00,,,0.00,VWS V14.01,2013-03-10 13:45:00,
2013-03-10 15:51:00,67.6,46.6,29.77,South,180,4.2,7.3,47,0.00,,,0.00,VWS V14.01,2013-03-10 13:51:00,
2013-03-10 15:56:00,67.3,46.9,29.76,SSW,202,10.9,10.9,48,0.00,,,0.00,VWS V14.01,2013-03-10 13:56:00,
2013-03-10 16:01:00,67.3,46.9,29.76,South,180,0.0,0.0,48,0.00,,,0.00,VWS V14.01,2013-03-10 14:01:00,
2013-03-10 16:06:00,68.2,47.8,29.76,South,180,10.0,10.0,48,0.00,,,0.00,VWS V14.01,2013-03-10 14:06:00,
2013-03-10 16:11:00,68.0,47.0,29.76,South,180,8.2,8.2,47,0.00,,,0.00,VWS V14.01,2013-03-10 14:11:00,
2013-03-10 16:16:00,68.0,47.6,29.76,SSW,202,1.1,1.1,48,0.00,,,0.00,VWS V14.01,2013-03-10 14:16:00,
2013-03-10 16:21:00,68.0,47.6,29.76,SSW,202,1.7,5.3,48,0.00,,,0.00,VWS V14.01,2013-03-10 14:21:00,
2013-03-10 16:26:00,68.0,47.0,29.76,SSE,158,4.2,6.2,47,0.00,,,0.00,VWS V14.01,2013-03-10 14:26:00,
2013-03-10 16:31:00,68.0,48.1,29.76,SSW,202,3.3,3.3,49,0.00,,,0.00,VWS V14.01,2013-03-10 14:31:00,
2013-03-10 16:36:00,67.8,47.4,29.76,SW,225,1.1,1.1,48,0.00,,,0.00,VWS V14.01,2013-03-10 14:36:00,
2013-03-10 16:41:00,67.8,47.9,29.76,SSW,202,4.0,4.0,49,0.00,,,0.00,VWS V14.01,2013-03-10 14:41:00,
2013-03-10 16:46:00,67.3,47.5,29.76,SSW,202,0.0,0.0,49,0.00,,,0.00,VWS V14.01,2013-03-10 14:46:00,
2013-03-10 16:51:00,66.7,48.0,29.76,South,180,6.2,6.2,51,0.00,,,0.00,VWS V14.01,2013-03-10 14:51:00,
2013-03-10 16:56:00,66.7,49.0,29.76,South,180,3.1,3.1,53,0.00,,,0.00,VWS V14.01,2013-03-10 14:56:00,
2013-03-10 17:01:00,66.2,50.0,29.76,SSE,158,3.1,3.1,56,0.00,,,0.00,VWS V14.01,2013-03-10 15:01:00,
2013-03-10 17:06:00,65.7,49.6,29.76,SSW,202,2.9,2.9,56,0.00,,,0.00,VWS V14.01,2013-03-10 15:06:00,
2013-03-10 17:11:00,65.7,49.1,29.76,SSW,202,13.1,13.1,55,0.00,,,0.00,VWS V14.01,2013-03-10 15:11:00,
2013-03-10 17:16:00,65.7,48.6,29.76,South,180,2.2,2.2,54,0.00,,,0.00,VWS V14.01,2013-03-10 15:16:00,
2013-03-10 17:21:00,65.7,49.1,29.76,SSW,202,0.0,0.0,55,0.00,,,0.00,VWS V14.01,2013-03-10 15:21:00,
2013-03-10 17:26:00,65.8,49.2,29.77,South,180,1.1,1.1,55,0.00,,,0.00,VWS V14.01,2013-03-10 15:26:00,
2013-03-10 17:31:00,65.3,48.7,29.76,SSW,202,3.3,7.1,55,0.00,,,0.00,VWS V14.01,2013-03-10 15:31:00,
2013-03-10 17:37:00,65.3,48.7,29.76,SSW,202,5.3,5.3,55,0.00,,,0.00,VWS V14.01,2013-03-10 15:37:00,
2013-03-10 17:42:00,65.3,48.7,29.77,SSW,202,0.0,0.0,55,0.00,,,0.00,VWS V14.01,2013-03-10 15:42:00,
2013-03-10 17:47:00,64.8,49.7,29.77,SSW,202,0.0,0.0,58,0.00,,,0.00,VWS V14.01,2013-03-10 15:47:00,
2013-03-10 17:52:00,64.4,48.8,29.77,South,180,0.0,0.0,57,0.00,,,0.00,VWS V14.01,2013-03-10 15:52:00,
2013-03-10 17:57:00,64.0,48.9,29.77,South,180,0.0,0.0,58,0.00,,,0.00,VWS V14.01,2013-03-10 15:57:00,
2013-03-10 18:02:00,63.7,50.4,29.77,South,180,0.0,0.0,62,0.00,,,0.00,VWS V14.01,2013-03-10 16:02:00,
2013-03-10 18:07:00,63.3,50.0,29.77,South,180,0.0,0.0,62,0.00,,,0.00,VWS V14.01,2013-03-10 16:07:00,
2013-03-10 18:12:00,63.0,50.2,29.77,South,180,0.0,0.0,63,0.00,,,0.00,VWS V14.01,2013-03-10 16:12:00,
2013-03-10 18:17:00,62.6,50.2,29.77,South,180,0.0,0.0,64,0.00,,,0.00,VWS V14.01,2013-03-10 16:17:00,
2013-03-10 18:22:00,62.6,50.2,29.77,South,180,0.0,0.0,64,0.00,,,0.00,VWS V14.01,2013-03-10 16:22:00,
2013-03-10 18:27:00,62.2,49.4,29.77,South,180,0.0,0.0,63,0.00,,,0.00,VWS V14.01,2013-03-10 16:27:00,
2013-03-10 18:32:00,62.2,49.8,29.77,South,180,0.0,0.0,64,0.00,,,0.00,VWS V14.01,2013-03-10 16:32:00,
2013-03-10 18:37:00,61.9,49.6,29.77,South,180,0.0,0.0,64,0.00,,,0.00,VWS V14.01,2013-03-10 16:37:00,
2013-03-10 18:42:00,61.7,49.8,29.77,South,180,0.0,0.0,65,0.00,,,0.00,VWS V14.01,2013-03-10 16:42:00,
2013-03-10 18:47:00,61.5,50.0,29.76,South,180,0.0,0.0,66,0.00,,,0.00,VWS V14.01,2013-03-10 16:47:00,
2013-03-10 18:52:00,61.3,49.8,29.76,South,180,0.0,0.0,66,0.00,,,0.00,VWS V14.01,2013-03-10 16:52:00,
2013-03-10 18:58:00,61.0,49.9,29.76,South,180,0.0,0.0,67,0.00,,,0.00,VWS V14.01,2013-03-10 16:58:00,
2013-03-10 19:03:00,60.8,49.8,29.76,South,180,0.0,0.0,67,0.00,,,0.00,VWS V14.01,2013-03-10 17:03:00,
2013-03-10 19:08:00,60.8,49.8,29.76,South,180,0.0,0.0,67,0.00,,,0.00,VWS V14.01,2013-03-10 17:08:00,
2013-03-10 19:13:00,60.4,49.8,29.76,South,180,0.0,0.0,68,0.00,,,0.00,VWS V14.01,2013-03-10 17:13:00,
2013-03-10 19:18:00,60.1,49.9,29.76,South,180,0.0,0.0,69,0.00,,,0.00,VWS V14.01,2013-03-10 17:18:00,
2013-03-10 19:23:00,59.9,49.7,29.77,South,180,0.0,0.0,69,0.00,,,0.00,VWS V14.01,2013-03-10 17:23:00,
2013-03-10 19:28:00,59.7,49.5,29.77,South,180,0.0,0.0,69,0.00,,,0.00,VWS V14.01,2013-03-10 17:28:00,
2013-03-10 19:33:00,59.4,49.2,29.76,South,180,0.0,0.0,69,0.00,,,0.00,VWS V14.01,2013-03-10 17:33:00,
2013-03-10 19:38:00,59.4,49.6,29.76,South,180,0.0,0.0,70,0.00,,,0.00,VWS V14.01,2013-03-10 17:38:00,
2013-03-10 19:43:00,59.4,49.6,29.76,South,180,0.0,0.0,70,0.00,,,0.00,VWS V14.01,2013-03-10 17:43:00,
2013-03-10 19:48:00,59.4,49.6,29.76,South,180,0.0,0.0,70,0.00,,,0.00,VWS V14.01,2013-03-10 17:48:00,
2013-03-10 19:53:00,59.2,49.4,29.76,South,180,0.0,0.0,70,0.00,,,0.00,VWS V14.01,2013-03-10 17:53:00,
2013-03-10 19:58:00,59.0,49.2,29.76,South,180,0.0,0.0,70,0.00,,,0.00,VWS V14.01,2013-03-10 17:58:00,
2013-03-10 20:03:00,58.6,49.2,29.77,South,180,0.0,0.0,71,0.00,,,0.00,VWS V14.01,2013-03-10 18:03:00,
2013-03-10 20:08:00,58.3,48.9,29.77,South,180,0.0,0.0,71,0.00,,,0.00,VWS V14.01,2013-03-10 18:08:00,
2013-03-10 20:13:00,57.9,48.9,29.77,South,180,0.0,0.0,72,0.00,,,0.00,VWS V14.01,2013-03-10 18:13:00,
2013-03-10 20:18:00,57.7,48.7,29.77,South,180,0.0,0.0,72,0.00,,,0.00,VWS V14.01,2013-03-10 18:18:00,
2013-03-10 20:23:00,57.7,48.7,29.77,South,180,0.0,0.0,72,0.00,,,0.00,VWS V14.01,2013-03-10 18:23:00,
2013-03-10 20:28:00,57.6,48.6,29.77,South,180,0.0,0.0,72,0.00,,,0.00,VWS V14.01,2013-03-10 18:28:00,
2013-03-10 20:34:00,57.4,48.4,29.77,South,180,0.0,0.0,72,0.00,,,0.00,VWS V14.01,2013-03-10 18:34:00,
2013-03-10 20:39:00,57.2,48.6,29.77,South,180,0.0,0.0,73,0.00,,,0.00,VWS V14.01,2013-03-10 18:39:00,
2013-03-10 20:44:00,57.4,49.2,29.77,South,180,0.0,0.0,74,0.00,,,0.00,VWS V14.01,2013-03-10 18:44:00,
2013-03-10 20:49:00,57.4,49.2,29.77,South,180,0.0,0.0,74,0.00,,,0.00,VWS V14.01,2013-03-10 18:49:00,
2013-03-10 20:54:00,57.6,49.3,29.77,South,180,0.0,0.0,74,0.00,,,0.00,VWS V14.01,2013-03-10 18:54:00,
2013-03-10 20:59:00,57.4,49.2,29.77,South,180,0.0,0.0,74,0.00,,,0.00,VWS V14.01,2013-03-10 18:59:00,
2013-03-10 21:04:00,57.6,49.3,29.77,South,180,0.0,0.0,74,0.00,,,0.00,VWS V14.01,2013-03-10 19:04:00,
2013-03-10 21:09:00,57.7,49.4,29.77,South,180,0.0,0.0,74,0.00,,,0.00,VWS V14.01,2013-03-10 19:09:00,
2013-03-10 21:14:00,57.6,49.3,29.77,South,180,0.0,0.0,74,0.00,,,0.00,VWS V14.01,2013-03-10 19:14:00,
2013-03-10 21:19:00,57.7,49.4,29.77,South,180,0.0,0.0,74,0.00,,,0.00,VWS V14.01,2013-03-10 19:19:00,
2013-03-10 21:24:00,57.7,49.4,29.77,South,180,0.0,0.0,74,0.00,,,0.00,VWS V14.01,2013-03-10 19:24:00,
2013-03-10 21:29:00,57.9,49.6,29.77,South,180,0.0,0.0,74,0.00,,,0.00,VWS V14.01,2013-03-10 19:29:00,
2013-03-10 21:34:00,57.7,49.4,29.77,South,180,0.0,0.0,74,0.00,,,0.00,VWS V14.01,2013-03-10 19:34:00,
2013-03-10 21:39:00,57.7,49.4,29.77,South,180,0.0,0.0,74,0.00,,,0.00,VWS V14.01,2013-03-10 19:39:00,
2013-03-10 21:45:00,57.6,49.7,29.77,South,180,0.0,0.0,75,0.00,,,0.00,VWS V14.01,2013-03-10 19:45:00,
2013-03-10 21:50:00,57.4,49.9,29.77,South,180,0.0,0.0,76,0.00,,,0.00,VWS V14.01,2013-03-10 19:50:00,
2013-03-10 21:55:00,57.2,49.7,29.77,South,180,0.0,0.0,76,0.00,,,0.00,VWS V14.01,2013-03-10 19:55:00,
2013-03-10 22:00:00,57.2,49.7,29.76,South,180,0.0,0.0,76,0.00,,,0.00,VWS V14.01,2013-03-10 20:00:00,
2013-03-10 22:05:00,57.2,49.7,29.76,South,180,0.0,0.0,76,0.00,,,0.00,VWS V14.01,2013-03-10 20:05:00,
2013-03-10 22:10:00,57.7,50.2,29.76,South,180,0.0,0.0,76,0.00,,,0.00,VWS V14.01,2013-03-10 20:10:00,
2013-03-10 22:15:00,58.1,49.8,29.76,WNW,292,0.0,0.0,74,0.00,,,0.00,VWS V14.01,2013-03-10 20:15:00,
2013-03-10 22:20:00,58.1,49.8,29.76,WNW,292,0.0,0.0,74,0.00,,,0.00,VWS V14.01,2013-03-10 20:20:00,
2013-03-10 22:26:00,58.1,49.8,29.76,WNW,292,0.0,0.0,74,0.00,,,0.00,VWS V14.01,2013-03-10 20:26:00,
2013-03-10 22:31:00,57.7,49.4,29.76,WNW,292,0.0,0.0,74,0.00,,,0.00,VWS V14.01,2013-03-10 20:31:00,
2013-03-10 22:36:00,57.6,49.3,29.76,WNW,292,0.0,0.0,74,0.00,,,0.00,VWS V14.01,2013-03-10 20:36:00,
2013-03-10 22:41:00,57.4,49.5,29.76,WNW,292,0.0,0.0,75,0.00,,,0.00,VWS V14.01,2013-03-10 20:41:00,
2013-03-10 22:47:00,57.4,49.9,29.76,WNW,292,0.0,0.0,76,0.00,,,0.00,VWS V14.01,2013-03-10 20:47:00,
2013-03-10 22:52:00,57.4,49.9,29.75,WSW,248,0.0,0.0,76,0.00,,,0.00,VWS V14.01,2013-03-10 20:52:00,
2013-03-10 22:57:00,57.2,50.0,29.76,WSW,248,0.0,0.0,77,0.00,,,0.00,VWS V14.01,2013-03-10 20:57:00,
2013-03-10 23:02:00,56.8,50.0,29.76,WSW,248,0.0,0.0,78,0.00,,,0.00,VWS V14.01,2013-03-10 21:02:00,
2013-03-10 23:07:00,56.5,49.7,29.76,WSW,248,0.0,0.0,78,0.00,,,0.00,VWS V14.01,2013-03-10 21:07:00,
2013-03-10 23:12:00,56.3,49.5,29.76,WSW,248,0.0,0.0,78,0.00,,,0.00,VWS V14.01,2013-03-10 21:12:00,
2013-03-10 23:17:00,56.3,49.8,29.76,WSW,248,0.0,0.0,79,0.00,,,0.00,VWS V14.01,2013-03-10 21:17:00,
2013-03-10 23:22:00,56.1,50.0,29.76,WSW,248,0.0,0.0,80,0.00,,,0.00,VWS V14.01,2013-03-10 21:22:00,
2013-03-10 23:27:00,55.9,49.5,29.76,WSW,248,0.0,0.0,79,0.00,,,0.00,VWS V14.01,2013-03-10 21:27:00,
2013-03-10 23:32:00,55.9,49.8,29.75,WSW,248,0.0,0.0,80,0.00,,,0.00,VWS V14.01,2013-03-10 21:32:00,
2013-03-10 23:37:00,55.6,49.8,29.76,WSW,248,0.0,0.0,81,0.00,,,0.00,VWS V14.01,2013-03-10 21:37:00,
2013-03-10 23:43:00,55.6,49.8,29.76,WSW,248,0.0,0.0,81,0.00,,,0.00,VWS V14.01,2013-03-10 21:43:00,
2013-03-10 23:48:00,55.6,50.2,29.75,WSW,248,0.0,0.0,82,0.00,,,0.00,VWS V14.01,2013-03-10 21:48:00,
2013-03-10 23:53:00,55.4,50.0,29.75,WSW,248,0.0,0.0,82,0.00,,,0.00,VWS V14.01,2013-03-10 21:53:00,
2013-03-10 23:58:00,55.4,50.0,29.75,WSW,248,0.0,0.0,82,0.00,,,0.00,VWS V14.01,2013-03-10 21:58:00,